Time;durP1;ratioP1;P1;durP2;ratioP2;P2;SDS_P1;SDS_P2;PMS_P1;PMS_P2;Temp;Humidity;BMP_temperature;BMP_pressure;BME280_temperature;BME280_humidity;BME280_pressure;Samples;Min_cycle;Max_cycle;Signal;HPM_P1;HPM_P2
2023/01/14 15:27:00;;;;;;;4.97;2.08;;;;;;;22.84;42.72;100432.78;4991903;27;4056026;-41
2023/01/14 15:29:31;;;;;;;5.65;1.95;;;;;;;23.24;41.45;100439.28;5125322;28;20114;-43
2023/01/14 15:32:38;;;;;;;5.43;2.10;;;;;;;23.49;41.14;100456.91;5112495;28;20023;-41
2023/01/14 15:35:08;;;;;;;;;;;;;;;23.70;40.73;100470.13;5123744;28;20035;-43
2023/01/14 15:37:35;;;;;;;6.38;1.92;;;;;;;23.82;40.50;100463.25;5112075;28;19915;-43
2023/01/14 15:40:04;;;;;;;4.18;1.48;;;;;;;23.94;39.84;100457.16;5129780;28;20027;-41
2023/01/14 15:42:32;;;;;;;7.88;1.75;;;;;;;24.01;39.75;100472.97;5117024;28;20398;-41
2023/01/14 15:45:00;;;;;;;3.25;1.60;;;;;;;24.09;39.57;100479.09;5102756;28;20449;-44
2023/01/14 15:47:28;;;;;;;3.20;1.33;;;;;;;24.13;39.32;100496.59;5125758;28;20474;-43
2023/01/14 15:49:56;;;;;;;2.67;1.38;;;;;;;24.11;39.72;100493.97;5111573;28;20034;-44
2023/01/14 15:52:34;;;;;;;4.68;1.73;;;;;;;24.09;39.38;100482.63;5128323;28;20031;-43
2023/01/14 15:55:22;;;;;;;2.30;1.50;;;;;;;24.10;39.45;100484.38;5125938;28;20504;-44
2023/01/14 15:57:52;;;;;;;3.53;1.77;;;;;;;24.12;39.42;100480.00;5128722;28;20023;-42
2023/01/14 16:00:21;;;;;;;2.70;1.48;;;;;;;24.12;39.11;100486.97;5129326;28;20038;-42
2023/01/14 16:02:50;;;;;;;6.72;2.05;;;;;;;24.20;39.18;100494.88;5110918;28;20042;-46
2023/01/14 16:05:30;;;;;;;4.28;1.38;;;;;;;24.22;39.36;100503.63;5129146;28;20110;-43
2023/01/14 16:08:00;;;;;;;2.65;1.20;;;;;;;24.28;39.05;100511.53;5129696;28;20112;-43
2023/01/14 16:10:28;;;;;;;2.33;1.27;;;;;;;24.17;39.01;100485.28;5089477;28;20549;-42
2023/01/14 16:12:57;;;;;;;2.67;1.20;;;;;;;24.33;38.96;100511.53;5123904;28;20019;-42
2023/01/14 16:15:26;;;;;;;3.08;1.10;;;;;;;24.27;39.16;100509.78;5110770;28;20030;-41
2023/01/14 16:18:06;;;;;;;4.30;1.40;;;;;;;24.24;38.87;100513.25;5111230;28;20024;-41
2023/01/14 16:20:33;;;;;;;2.20;1.30;;;;;;;24.25;39.02;100524.63;5124598;28;20019;-44
2023/01/14 16:23:00;;;;;;;3.95;1.38;;;;;;;24.36;38.70;100528.16;5124587;28;20024;-42
2023/01/14 16:25:29;;;;;;;2.58;1.17;;;;;;;24.29;38.85;100518.53;5128633;28;20429;-41
2023/01/14 16:27:56;;;;;;;3.15;1.25;;;;;;;24.35;38.72;100531.66;5114600;28;20405;-42
2023/01/14 16:30:24;;;;;;;6.50;1.58;;;;;;;24.32;39.04;100539.53;5110422;28;20031;-41
2023/01/14 16:32:51;;;;;;;2.63;1.40;;;;;;;24.38;38.96;100543.91;5112197;28;20475;-42
2023/01/14 16:35:19;;;;;;;4.82;2.30;;;;;;;24.44;38.36;100567.50;5114645;28;20550;-44
2023/01/14 16:37:47;;;;;;;3.33;1.70;;;;;;;24.41;38.54;100562.25;5096845;28;20096;-42
2023/01/14 16:40:38;;;;;;;4.63;2.30;;;;;;;24.38;38.50;100563.13;5114607;28;20032;-45
2023/01/14 16:43:06;;;;;;;4.25;2.08;;;;;;;24.39;38.65;100564.00;5107502;28;20016;-43
2023/01/14 16:45:34;;;;;;;3.88;1.75;;;;;;;24.43;38.47;100553.53;5096377;28;20035;-44
2023/01/14 16:48:02;;;;;;;7.15;2.33;;;;;;;24.48;38.42;100569.28;5096518;28;20035;-44
2023/01/14 16:53:53;;;;;;;4.80;2.08;;;;;;;24.51;38.34;100573.66;5036678;28;20052;-42
2023/01/14 16:59:44;;;;;;;5.45;1.90;;;;;;;24.41;38.71;100546.53;5032635;28;20129;-43
2023/01/14 17:02:14;;;;;;;4.93;1.77;;;;;;;24.46;38.77;100530.84;5032464;28;20112;-45
2023/01/14 17:04:43;;;;;;;3.70;2.00;;;;;;;24.47;38.82;100535.22;5032762;28;20037;-43
2023/01/14 17:07:11;;;;;;;3.55;1.60;;;;;;;24.50;38.45;100541.34;5032425;28;20057;-44
2023/01/14 17:09:40;;;;;;;6.90;1.70;;;;;;;24.47;38.41;100541.31;5033149;28;20404;-43
2023/01/14 17:12:53;;;;;;;5.88;1.70;;;;;;;24.50;38.33;100556.19;5032801;28;20037;-46
2023/01/14 17:14:56;;;;;;;4.72;2.00;;;;;;;24.51;38.70;100564.06;4999149;28;20040;-44
2023/01/14 17:17:25;;;;;;;4.65;1.40;;;;;;;24.50;38.47;100556.19;5016142;28;20519;-44
2023/01/14 17:23:17;;;;;;;5.40;1.73;;;;;;;24.56;38.21;100558.84;5047999;28;20044;-41
2023/01/14 17:25:46;;;;;;;3.78;1.50;;;;;;;24.56;38.47;100558.84;5115068;28;20054;-42
2023/01/14 17:28:15;;;;;;;3.90;1.58;;;;;;;24.53;38.35;100572.81;5115371;28;20547;-44
2023/01/14 17:30:44;;;;;;;4.20;1.55;;;;;;;24.50;38.46;100580.66;5115027;28;20035;-43
2023/01/14 17:33:12;;;;;;;3.75;1.40;;;;;;;24.57;38.28;100578.94;5115419;28;20028;-42
2023/01/14 17:35:41;;;;;;;4.10;1.92;;;;;;;24.58;38.33;100575.44;5115462;28;20475;-42
2023/01/14 17:38:10;;;;;;;3.92;1.30;;;;;;;24.60;38.43;100557.09;5114477;28;20027;-42
2023/01/14 17:40:39;;;;;;;2.40;1.30;;;;;;;24.58;38.01;100584.19;5097050;28;20024;-43
2023/01/14 17:43:07;;;;;;;4.38;1.20;;;;;;;24.58;38.22;100585.94;5096429;28;20028;-45
2023/01/14 17:45:37;;;;;;;4.95;1.60;;;;;;;24.58;38.10;100576.31;5114977;28;20030;-43
2023/01/14 17:48:05;;;;;;;4.22;1.42;;;;;;;24.62;38.29;100566.75;5115114;28;20020;-47
2023/01/14 17:50:34;;;;;;;5.45;1.60;;;;;;;24.52;38.11;100559.69;5114810;28;20028;-42
2023/01/14 17:53:02;;;;;;;3.80;1.63;;;;;;;24.62;37.76;100578.97;5114736;28;20024;-47
2023/01/14 17:55:31;;;;;;;4.32;1.45;;;;;;;24.61;37.89;100590.31;5114484;28;20028;-43
2023/01/14 17:57:59;;;;;;;3.05;1.42;;;;;;;24.63;38.15;100605.22;5114550;28;20027;-44
2023/01/14 18:00:28;;;;;;;2.80;1.23;;;;;;;24.65;37.77;100594.72;5114736;28;20486;-42
2023/01/14 18:02:57;;;;;;;5.55;1.95;;;;;;;24.63;37.77;100580.72;5114415;28;20482;-43
2023/01/14 18:05:25;;;;;;;5.95;1.80;;;;;;;24.64;38.02;100592.97;5096550;28;20028;-47
2023/01/14 18:07:54;;;;;;;5.00;2.25;;;;;;;24.65;38.01;100606.09;5096788;28;20149;-44
2023/01/14 18:10:23;;;;;;;3.67;1.35;;;;;;;24.66;37.90;100605.19;5114754;28;20470;-44
2023/01/14 18:12:51;;;;;;;4.32;1.30;;;;;;;24.67;37.81;100599.09;5114702;28;20030;-42
2023/01/14 18:15:27;;;;;;;6.00;1.20;;;;;;;24.68;37.90;100605.22;5114638;28;20115;-42
2023/01/14 18:17:56;;;;;;;5.70;1.42;;;;;;;24.68;37.98;100610.47;5114246;28;20470;-42
2023/01/14 18:20:25;;;;;;;7.47;1.55;;;;;;;24.69;37.89;100620.09;5114521;28;20031;-43
2023/01/14 18:22:56;;;;;;;5.13;1.73;;;;;;;24.70;37.60;100624.50;5095900;28;20015;-43
2023/01/14 18:25:26;;;;;;;5.20;1.42;;;;;;;24.66;37.76;100615.69;5114542;28;20108;-42
2023/01/14 18:27:56;;;;;;;6.75;2.38;;;;;;;24.70;37.84;100612.25;5114163;28;20031;-44
2023/01/14 18:30:25;;;;;;;6.55;1.67;;;;;;;24.68;38.03;100619.19;5096026;28;20136;-46
2023/01/14 18:32:53;;;;;;;4.70;1.95;;;;;;;24.71;37.68;100623.63;5114053;28;20531;-45
2023/01/14 18:35:22;;;;;;;5.05;2.03;;;;;;;24.70;37.70;100621.88;5113929;28;20027;-45
2023/01/14 18:37:50;;;;;;;7.95;1.92;;;;;;;24.64;37.72;100630.56;5096420;28;20027;-46
2023/01/14 18:40:19;;;;;;;5.18;1.88;;;;;;;24.65;37.56;100634.06;5113924;28;20028;-47
2023/01/14 18:42:48;;;;;;;3.70;1.60;;;;;;;24.69;37.76;100646.31;5095663;28;20023;-43
2023/01/14 18:45:16;;;;;;;3.92;1.60;;;;;;;24.65;37.67;100636.69;5113490;28;20486;-43
2023/01/14 18:47:45;;;;;;;6.38;2.47;;;;;;;24.66;37.55;100647.16;5113967;28;20031;-48
2023/01/14 18:50:14;;;;;;;5.15;1.92;;;;;;;24.64;37.88;100633.19;5095606;28;20019;-47
2023/01/14 18:52:42;;;;;;;3.45;1.17;;;;;;;24.61;37.66;100638.41;5113714;28;20019;-44
2023/01/14 18:55:11;;;;;;;3.53;1.35;;;;;;;24.60;37.52;100641.91;5114089;28;20370;-44
2023/01/14 18:57:40;;;;;;;4.53;1.73;;;;;;;24.66;37.70;100656.78;5113596;28;20024;-43
2023/01/14 19:00:09;;;;;;;4.78;1.75;;;;;;;24.66;37.79;100652.41;5095358;28;20077;-45
2023/01/14 19:02:38;;;;;;;8.55;2.22;;;;;;;24.67;37.72;100661.16;5113898;28;20023;-44
2023/01/14 19:05:07;;;;;;;5.35;1.50;;;;;;;24.67;37.72;100666.41;5113453;28;20110;-47
2023/01/14 19:07:36;;;;;;;3.53;1.38;;;;;;;24.67;37.72;100675.16;5113976;28;20024;-45
2023/01/14 19:10:05;;;;;;;4.72;1.70;;;;;;;24.70;37.64;100682.22;5095375;28;20085;-43
2023/01/14 19:12:34;;;;;;;8.40;2.13;;;;;;;24.72;37.35;100689.22;5113282;28;20027;-46
2023/01/14 19:15:01;;;;;;;5.80;1.60;;;;;;;24.67;37.67;100692.66;5113680;28;20121;-43
2023/01/14 19:17:30;;;;;;;5.65;1.80;;;;;;;24.67;37.64;100714.50;5113337;28;20513;-43
2023/01/14 19:19:59;;;;;;;5.18;1.75;;;;;;;24.66;37.45;100712.72;5113695;28;20070;-47
2023/01/14 19:22:28;;;;;;;7.07;2.38;;;;;;;24.69;37.45;100709.28;5113619;28;20427;-44
2023/01/14 19:24:56;;;;;;;4.82;1.88;;;;;;;24.68;37.45;100716.25;5113008;28;20055;-45
2023/01/14 19:27:25;;;;;;;6.75;1.58;;;;;;;24.69;37.28;100731.13;5113503;28;20487;-48
2023/01/14 19:29:53;;;;;;;5.07;1.88;;;;;;;24.68;37.28;100728.50;5113052;28;20028;-46
2023/01/14 19:32:22;;;;;;;3.33;1.52;;;;;;;24.68;37.47;100731.97;5113680;28;20099;-48
2023/01/14 19:34:50;;;;;;;3.10;1.35;;;;;;;24.68;37.32;100739.00;5113519;28;20030;-50
2023/01/14 19:37:19;;;;;;;3.13;1.38;;;;;;;24.64;37.40;100750.31;5113964;28;20031;-45
2023/01/14 19:39:47;;;;;;;2.95;1.23;;;;;;;24.67;37.28;100755.59;5078438;28;20109;-48
2023/01/14 19:42:15;;;;;;;5.10;1.98;;;;;;;24.66;37.25;100757.31;5113036;28;20481;-45
2023/01/14 19:44:44;;;;;;;4.40;1.40;;;;;;;24.67;37.38;100755.59;5095540;28;20023;-44
2023/01/14 19:47:12;;;;;;;3.72;1.50;;;;;;;24.65;37.41;100762.56;5113647;28;20034;-43
2023/01/14 19:49:41;;;;;;;3.53;1.30;;;;;;;24.67;37.21;100766.94;5113081;28;20020;-47
2023/01/14 19:52:10;;;;;;;4.00;1.55;;;;;;;24.63;37.28;100757.34;5095392;28;20111;-46
2023/01/14 19:54:38;;;;;;;7.43;1.63;;;;;;;24.68;37.48;100765.22;5113376;28;20029;-43
2023/01/14 19:57:07;;;;;;;3.95;1.45;;;;;;;24.68;37.50;100770.47;5113278;28;20027;-45
2023/01/14 19:59:36;;;;;;;3.50;1.75;;;;;;;24.68;37.70;100757.34;5113644;28;20432;-45
2023/01/14 20:02:04;;;;;;;3.88;1.67;;;;;;;24.71;37.41;100757.41;5096600;28;20099;-46
2023/01/14 20:04:33;;;;;;;3.13;1.23;;;;;;;24.68;37.28;100759.97;5117368;28;20031;-43
2023/01/14 20:07:01;;;;;;;2.42;1.15;;;;;;;24.69;37.31;100770.47;5116472;28;20124;-44
2023/01/14 20:09:34;;;;;;;3.60;1.40;;;;;;;24.68;37.34;100778.34;5116917;28;20081;-44
2023/01/14 20:12:03;;;;;;;4.90;1.60;;;;;;;24.72;37.25;100783.63;5117118;28;20102;-47
2023/01/14 20:14:32;;;;;;;4.10;2.08;;;;;;;24.77;37.23;100772.31;5117152;28;20028;-46
2023/01/14 20:17:00;;;;;;;5.72;2.15;;;;;;;24.72;37.31;100778.41;5116890;28;20103;-46
2023/01/14 20:19:29;;;;;;;4.40;2.03;;;;;;;24.71;37.10;100770.53;5117089;28;20448;-43
2023/01/14 20:21:58;;;;;;;4.30;2.30;;;;;;;24.71;37.43;100781.03;5116584;28;20028;-43
2023/01/14 20:24:26;;;;;;;6.00;2.60;;;;;;;24.72;37.14;100782.78;5098866;28;20115;-44
2023/01/14 20:26:55;;;;;;;4.68;1.92;;;;;;;24.70;37.01;100769.63;5116412;28;20039;-45
2023/01/14 20:29:23;;;;;;;5.60;2.17;;;;;;;24.66;37.43;100775.69;5116563;28;20051;-45
2023/01/14 20:31:52;;;;;;;3.97;2.17;;;;;;;24.70;37.20;100767.00;5116257;28;20020;-46
2023/01/14 20:34:20;;;;;;;3.97;2.08;;;;;;;24.71;37.11;100775.78;5116386;28;20055;-43
2023/01/14 20:36:49;;;;;;;5.93;2.10;;;;;;;24.67;37.38;100784.44;5116238;28;20462;-46
2023/01/14 20:39:22;;;;;;;5.15;2.25;;;;;;;24.70;37.21;100789.75;5116242;28;20084;-45
2023/01/14 20:42:33;;;;;;;2.78;1.75;;;;;;;24.72;37.16;100790.66;5116209;28;20541;-44
2023/01/14 20:44:58;;;;;;;4.15;2.05;;;;;;;24.75;37.36;100795.88;5104831;28;20043;-41
2023/01/14 20:47:30;;;;;;;4.43;2.20;;;;;;;24.72;37.17;100803.78;5115903;28;20063;-43
2023/01/14 20:50:00;;;;;;;5.03;1.98;;;;;;;24.76;36.88;100805.53;5097758;28;20027;-46
2023/01/14 20:52:28;;;;;;;4.43;2.05;;;;;;;24.68;37.07;100805.44;5115571;28;20107;-44
2023/01/14 20:54:57;;;;;;;5.75;2.67;;;;;;;24.72;36.96;100804.63;5097760;28;20084;-44
2023/01/14 20:57:29;;;;;;;4.78;2.40;;;;;;;24.76;36.88;100802.03;5116299;28;20028;-46
2023/01/14 20:59:58;;;;;;;7.15;2.65;;;;;;;24.71;36.94;100797.63;5116171;28;20073;-42
2023/01/14 21:02:27;;;;;;;5.13;2.40;;;;;;;24.73;37.29;100790.66;5115626;28;20032;-47
2023/01/14 21:04:57;;;;;;;5.47;2.65;;;;;;;24.70;37.25;100759.16;5098432;28;20072;-45
2023/01/14 21:07:29;;;;;;;5.88;2.88;;;;;;;24.71;37.16;100762.66;5115696;28;20165;-44
2023/01/14 21:09:57;;;;;;;5.13;2.20;;;;;;;24.71;36.86;100763.53;5097457;28;20376;-47
2023/01/14 21:12:26;;;;;;;4.50;2.45;;;;;;;24.70;36.79;100763.53;5097993;28;20096;-46
2023/01/14 21:23:17;;;;;;;3.75;1.90;;;;;;;24.71;37.18;100770.53;5105044;28;20145;-44
2023/01/14 21:25:45;;;;;;;3.53;1.52;;;;;;;24.74;37.01;100767.91;5097026;28;20048;-48
2023/01/14 21:28:14;;;;;;;3.85;1.98;;;;;;;24.72;37.16;100772.28;5097514;28;20036;-45
2023/01/14 21:30:45;;;;;;;3.88;1.50;;;;;;;24.63;36.99;100759.94;5097382;28;20035;-43
2023/01/14 21:33:14;;;;;;;4.90;2.05;;;;;;;24.70;36.92;100780.13;5115628;28;20015;-51
2023/01/14 21:35:43;;;;;;;4.20;1.80;;;;;;;24.72;36.93;100773.16;5115018;28;20393;-45
2023/01/14 21:38:11;;;;;;;3.28;1.58;;;;;;;24.70;37.26;100769.63;5115402;28;20122;-43
2023/01/14 21:40:41;;;;;;;6.72;1.90;;;;;;;24.74;36.78;100770.53;5115471;28;20023;-45
2023/01/14 21:43:29;;;;;;;2.22;1.40;;;;;;;24.72;37.23;100772.28;5115152;28;20493;-49
